CA-0308 weather

CLOSED Redvers Airport
Saskatchewan, Canada

Public forecast

Using degrees Celsius for public forecast. Weather courtesy of forecast.io.

Closest aviation weather report (METAR) to Redvers Airport

Closest report is Estevan Airport, 54.9 nm (101.7 km) WSW. Retrieved 2019/10/15 20:43 UTC (0 seconds ago):

CYEN 152043Z AUTO 33010G17KT 9SM OVC026 05/M00 A3019 RMK SLP250

Closest aviation forecast (TAF) to Redvers Airport

Closest forecast is Estevan Airport, 54.9 nm (101.7 km) WSW. Retrieved 2019/10/15 18:00 UTC (3 hours ago):

TAF CYEN 151738Z 1518/1524 34015G25KT P6SM BKN012 FM152100 32012G22KT P6SM BKN020 TEMPO 1521/1524 BKN025 RMK FCST BASED ON AUTO OBS NXT FCST WILL BE ISSUED AT 161145Z